Terminal Aerodrome Forecast
Issued by NWS

Home | Current Version | Previous Version | Graphics & Text | Print | Product List | Glossary Off
Versions: 1 2 3 4 5 6 7 8 9 10 11 12 13 14 15 16 17 18 19

000
FTUS43 KDDC 131432 AAA
TAFGCK
TAF AMD
KGCK 131432Z 1315/1412 32013G20KT P6SM FEW250
     FM131600 35020G30KT P6SM FEW250
     FM132300 35010KT P6SM FEW250=

USA.gov is the U.S. government's official web portal to all federal, state and local government web resources and services.